METAR Data
IDs: Format: Raw Decoded Include TAF

Data at: 2135 UTC 02 Aug 2021

LOXZ 022050Z 19005KT 15KM FEW014ST SCT050SC BKN080SC 14/13 Q1018